Timeline UpdatesTrip UpdatesNews PostsPvt PostsTravel TipsAdmin PostsConv PostsFollowed PostsChat RequestsBlog PostsPNR Posts

Disclaimer
Search
 
 
Sat Aug 23, 2014 14:56:27 ISTHomeTrainsΣChainsAtlasPNRForumGalleryNewsFAQTripsMembersLoginFeedback
No Recent News for this Train
Other Trains in the News **new
Latest...
Will be diverted via Malkhedi-Agasod chord line avoiding Bina station from 24th march 2014
Wed Jan 29, 2014 (09:06PM)
⇐ Return Journey: Train# 18508

18507/Hirakud (Hirakund) Express

Mar 24 2014 (6:58PM)
Change Departure Station:
Change Arrival Station:
Post a Train Travel TipPost a Train Travel Tip **new
Post a Comment/Question/Picture/VideoPost a Comment/Question/Picture/Video
Pantry/Catering
✓ Pantry Car Avbl
✓ Catering Avbl
Loco/Rake Reversals
SBP/Sambalpur Junction (3); JSG/Jharsuguda Junction (5); TLHR/Talcher;
RSA - Rake Sharing
Rake/Coach Composition
LOCO-SLR-GEN-GEN-GEN-GEN-S1-S2-S3-S4-S5-S6-PC-S7-S8-S9-S10-A1-B1-B2-GEN-GEN-SLR;; News/163411
Loco
VSKP-JSG- WDM-3A VSKP JSG-ASR -WAP-1/4 GZB Blog entry #541879-2
News    PNR    Forum    Time-Table    Availability    Fare Chart    Map    Arr/Dep History    Trips    Gallery    ΣChains    X/O    Timeline    
Travel Time: 34h 45m    35 halts    Distance: 1848 km    Avg Speed: 53 km/hr
Type: Mail/Express
Zone: ECoR/East Coast
Departs @ 04:00 (Avg 18m late)
Platform# 1
  T  FS
Brahmapur/BAM 
Arrives @ 14:45 +1 night (Avg 55m late)
Platform# 7
S  W  S
New Delhi/NDLS 

35 halts. 244 intermediate Stations between Brahmapur and New Delhi

Show ALL intermediate Stations  Show Old Time-Table

#CodeStation NameX/OArrivesAvgDepartsAvgHaltPFDay#KmSpeedElevZoneAddress
1VSKPVisakhapatnam Junction (8)  -23:50+281-278.06711mECoRVishakhapatnam 530001, Andhra Pradesh
2VZMVizianagaram Junction (5)XO  00:45+1700:50+175m--2-216.87963mECoRVizianagaram, Andhra Pradesh
3CHESrikakulam Road (4)  01:43+1101:45+112m--2-147.36034mECoRsrikakulam road ph .no. 08942-287222, Andhra Pradesh
4PSAPalasa (3)  02:58+803:00+112m--2-74.38131mECoRKasibugga, Andhra Pradesh
5BAM»Brahmapur (3)»X  03:55+1704:00+185m120.07227mECoRBerhampur, Odisha
6CAPChatrapur  04:18+2004:19+211m--221.57136mECoRChatrapur, Odisha
7BALUBalugaon (3)  05:05+1705:06+191m--276.15411mECoR752030, Odisha
8KURKhurda Road Junction (7)XO  06:25+806:40+1215m--2147.14525mECoRKhordha, Odisha
9BBSBhubaneswar (4)X  07:05+1107:10+125m22166.15540mECoRBhubaneshwar, Odisha
10DNKLDhenkanal (2)  08:17+2408:18+251m--2227.87559mECoRDhenkanal, Odisha
11TLHRTalcher09:00+3809:25+3725m--2280.01686mECoRSub-division Angul district, Odisha
12ANGLAngul (2)X  10:33+1010:35+132m--2298.273120mECoRAngul District, Odisha
13BONABoinda  11:07+2411:08+251m--2337.178292mECoRState Highway 62, Odisha
14RAIRRairakhol  11:44+3011:45+311m--2383.657144mECoRSH 24, Odisha
15SBPSambalpur Junction (3)13:00+2313:20+2420m12454.715159mECoRSambalpur, Odisha
16SBPDSambalpur Road  13:26+213:28+22m22456.222161mECoRSambalpur, Odisha
17JSGJharsuguda Junction (5)XOO14:40+2515:15+2035m12503.378236mSERJharsuguda, Odisha
18BRJNBrajrajnagar  15:24+2615:25+271m--2515.059212mSECRBrajrajnagar, Odisha
19BPHBelpahar  15:34+2815:35+321m--2523.985235mSECRBelpahar, Odisha
20RIGRaigarh (3)  16:11+4016:13+402m--2575.089220mSECRRaigarh, Chhattisgarh
21KHSKharsiaX  16:36+5316:37+541m--2608.971259mSECRNational Highway 200, Chhattisgarh
22SKTSakti (4)  16:50+5616:51+571m--2624.352237mSECRJanjgir-Champa, Chhattisgarh
23CPHChampa Junction (3)X  17:26+5017:31+485m22654.770264mSECRNational Highway 200 (07819-245767), Chhattisgarh
24AKTAkaltara (4)  17:53+4817:54+491m--2680.529284mSECRDist. Janjgir Champa, Chhattisgarh
25BSPBilaspur Junction (8)  18:50+1919:05+2615m52707.862271mSECRBilaspur, Chhattisgarh
26PNDPendra Road  20:43+5820:45+582m--2809.361620mSECRBilaspur district, Chhattisgarh
27APRAnuppur Junction (3)  21:35+5821:40+565m--2860.455487mSECRAnuppur, Madhya Pradesh
28SDLShahdol  22:25+4722:27+482m--2901.359466mSECR, Madhya Pradesh
29UMRUmaria (3)X  23:35+3623:37+362m--2968.633469mSECRUmaria, Madhya Pradesh
30KMZKatni Murwara  01:25+1801:35+2110m--31027.474385mWCRMP 483504 ?, Madhya Pradesh
31DMODamoh (2)  03:03+3003:05+302m--31136.566365mWCRDamoh, Madhya Pradesh
32SGOSaugor (2)  04:15+3304:20+335m--31213.660519mWCRMP 470001Madhya pradesh, Madhya Pradesh
33KYEKhurai (5)  05:13+2505:15+262m--31266.427439mWCRKhurai, Madhya Pradesh
34MAKRMalkheri Junction (2)  05:53+1205:55+152m--31283.655421mWCRGuna, Madhya Pradesh
35LARLalitpur (3)X  07:04+1507:05+361m331346.872373mNCRLalitpur, Uttar Pradesh
36JHSJhansi Junction (7)X  08:20+1408:28+258m231437.176259mNCRJhansi, Uttar Pradesh
37GWLGwalior Junction (4)  09:45+3109:50+325m231534.875214mNCRGwalior, Madhya Pradesh
38AGCAgra Cantt. (6)X  11:25+4611:30+485m131652.877174mNCRAgra, Uttar Pradesh
39MTJMathura Junction (10)  12:12+5712:15+583m231706.567179mNCRMathura, Uttar Pradesh
40NZMDelhi Hazrat Nizamuddin (7)XO  14:15+5514:17+552m331840.516209mNRNew Delhi 110013, Delhi NCT
41NDLS•New Delhi (16)•  14:45+5515:15+5030m731847.866215mNRNew Delhi, Delhi NCT
42PNPPanipat Junction (5)  16:37+1:1416:39+1:142m331937.557235mNRPanipat, Haryana
43UMBAmbala Cantt. Junction (7)O  18:35+5718:45+5610m732047.180278mNRAmbala 133001, Haryana
44LDHLudhiana Junction (7)X  20:10+1:0720:15+1:235m332160.743246mNRLudhiana 141001, Punjab
45JUCJalandhar City Junction (5)  21:35+1:0021:40+1:045m332217.557239mNRJalandhar 144001, Punjab
46BEASBeas Junction (2)  22:18+1:0022:19+1:011m132253.627238mNRBeas, Punjab
47ASRAmritsar Junction (5)  23:55+26-232296.6-233mNRAmritsar 143002, Punjab
Scroll to Top
Scroll to Bottom